Dati Storici

Data ora Umidita' aria (%) Temperatura aria (°C) Rad globale (W/m²) Gonioanemometro (°) Tacoanemometro (m/s) Pioggia (mm)
29-10-2012 20:50 64.7 % 8.237 1.672 246.168 0.268 0
29-10-2012 20:40 61.8 % 8.676 2.596 243.523 0.173 0
29-10-2012 20:30 61.7 % 8.754 3.146 271.32 0.763 0
29-10-2012 20:20 62.8 % 8.756 3.22 270.744 1.12 0
29-10-2012 20:10 62.6 % 8.768 3.284 241.962 0.557 0
29-10-2012 20:00 61.8 % 8.769 3.033 275.171 1.215 0
29-10-2012 19:50 61.2 % 8.876 3.315 254.033 0.961 0
29-10-2012 19:40 60.3 % 8.942 3.099 231.016 0.716 0
29-10-2012 19:30 59 % 9.075 3.24 216.542 1.208 0
29-10-2012 19:20 58.4 % 9.173 3.215 239.277 1.33 0
29-10-2012 19:10 58.3 % 9.263 3.381 230.271 0.553 0
29-10-2012 19:00 58 % 9.267 3.343 271.798 0.879 0
29-10-2012 18:50 56.7 % 9.347 3.061 236.47 1.336 0
29-10-2012 18:40 57.9 % 9.308 3.15 289.049 1.388 0
29-10-2012 18:30 58.3 % 9.38 3.369 197.441 0.77 0
29-10-2012 18:20 57.3 % 9.426 3.135 229.987 0.669 0
29-10-2012 18:10 57.1 % 9.501 4.148 263.722 1.032 0
29-10-2012 18:00 56.9 % 9.531 6.4 295.082 0.731 0
29-10-2012 17:50 56.4 % 9.628 12.399 265.71 1.783 0
29-10-2012 17:40 54.5 % 9.768 24.76 276.63 1.134 0

I dati sono presentati in modo automatico a scopo informativo. In seguito a verifica i dati possono subire modifiche o essere invalidati e non riportati negli archivi definitivi.